sensor_id;sensor_type;location;lat;lon;timestamp;pressure;altitude;pressure_sealevel;temperature;humidity
36692;BME280;22678;52.052;4.242;2023-09-07T00:01:43;101944.13;;;24.02;60.42
36692;BME280;22678;52.052;4.242;2023-09-07T00:04:09;101929.16;;;23.96;60.40
36692;BME280;22678;52.052;4.242;2023-09-07T00:06:34;101928.53;;;23.91;60.18
36692;BME280;22678;52.052;4.242;2023-09-07T00:09:00;101924.09;;;23.90;60.55
36692;BME280;22678;52.052;4.242;2023-09-07T00:11:26;101926.78;;;23.90;60.46
36692;BME280;22678;52.052;4.242;2023-09-07T00:13:51;101928.66;;;23.88;60.78
36692;BME280;22678;52.052;4.242;2023-09-07T00:16:17;101936.84;;;23.85;60.54
36692;BME280;22678;52.052;4.242;2023-09-07T00:18:43;101930.00;;;23.78;60.63
36692;BME280;22678;52.052;4.242;2023-09-07T00:21:08;101917.81;;;23.71;61.13
36692;BME280;22678;52.052;4.242;2023-09-07T00:23:33;101925.03;;;23.69;61.03
36692;BME280;22678;52.052;4.242;2023-09-07T00:25:59;101931.31;;;23.69;61.05
36692;BME280;22678;52.052;4.242;2023-09-07T00:28:24;101926.34;;;23.60;61.53
36692;BME280;22678;52.052;4.242;2023-09-07T00:30:49;101916.78;;;23.54;61.46
36692;BME280;22678;52.052;4.242;2023-09-07T00:33:15;101931.00;;;23.56;61.65
36692;BME280;22678;52.052;4.242;2023-09-07T00:35:40;101924.28;;;23.46;61.42
36692;BME280;22678;52.052;4.242;2023-09-07T00:38:05;101920.00;;;23.42;61.77
36692;BME280;22678;52.052;4.242;2023-09-07T00:40:31;101935.25;;;23.41;61.72
36692;BME280;22678;52.052;4.242;2023-09-07T00:42:56;101879.41;;;23.10;61.84
36692;BME280;22678;52.052;4.242;2023-09-07T00:45:21;101912.66;;;23.26;62.06
36692;BME280;22678;52.052;4.242;2023-09-07T00:47:47;101912.81;;;23.23;62.02
36692;BME280;22678;52.052;4.242;2023-09-07T00:50:12;101911.13;;;23.21;62.23
36692;BME280;22678;52.052;4.242;2023-09-07T00:52:41;101908.63;;;23.16;62.56
36692;BME280;22678;52.052;4.242;2023-09-07T00:55:07;101907.09;;;23.11;62.64
36692;BME280;22678;52.052;4.242;2023-09-07T00:57:33;101907.28;;;23.06;62.76
36692;BME280;22678;52.052;4.242;2023-09-07T00:59:59;101906.44;;;23.04;62.95
36692;BME280;22678;52.052;4.242;2023-09-07T01:02:24;101896.91;;;22.97;63.03
36692;BME280;22678;52.052;4.242;2023-09-07T01:04:51;101904.25;;;22.93;63.16
36692;BME280;22678;52.052;4.242;2023-09-07T01:07:20;101895.47;;;22.89;63.26
36692;BME280;22678;52.052;4.242;2023-09-07T01:09:52;101913.22;;;22.92;63.53
36692;BME280;22678;52.052;4.242;2023-09-07T01:12:17;101894.78;;;22.84;63.49
36692;BME280;22678;52.052;4.242;2023-09-07T01:14:43;101900.00;;;22.87;63.64
36692;BME280;22678;52.052;4.242;2023-09-07T01:17:09;101909.13;;;22.83;63.64
36692;BME280;22678;52.052;4.242;2023-09-07T01:19:36;101915.31;;;22.85;63.85
36692;BME280;22678;52.052;4.242;2023-09-07T01:22:02;101901.28;;;22.79;63.94
36692;BME280;22678;52.052;4.242;2023-09-07T01:24:29;101898.78;;;22.74;63.99
36692;BME280;22678;52.052;4.242;2023-09-07T01:26:56;101894.56;;;22.68;64.25
36692;BME280;22678;52.052;4.242;2023-09-07T01:29:22;101894.63;;;22.67;63.96
36692;BME280;22678;52.052;4.242;2023-09-07T01:31:47;101905.28;;;22.68;64.11
36692;BME280;22678;52.052;4.242;2023-09-07T01:34:13;101899.34;;;22.62;64.31
36692;BME280;22678;52.052;4.242;2023-09-07T01:36:40;101889.81;;;22.54;64.58
36692;BME280;22678;52.052;4.242;2023-09-07T01:39:06;101898.84;;;22.52;64.56
36692;BME280;22678;52.052;4.242;2023-09-07T01:41:31;101899.69;;;22.52;64.48
36692;BME280;22678;52.052;4.242;2023-09-07T01:43:58;101900.88;;;22.45;64.70
36692;BME280;22678;52.052;4.242;2023-09-07T01:46:23;101902.09;;;22.38;64.93
36692;BME280;22678;52.052;4.242;2023-09-07T01:48:49;101899.47;;;22.36;64.71
36692;BME280;22678;52.052;4.242;2023-09-07T01:51:14;101900.56;;;22.31;64.72
36692;BME280;22678;52.052;4.242;2023-09-07T01:53:40;101887.47;;;22.23;64.86
36692;BME280;22678;52.052;4.242;2023-09-07T01:56:05;101903.50;;;22.25;65.11
36692;BME280;22678;52.052;4.242;2023-09-07T01:58:30;101897.56;;;22.16;65.18
36692;BME280;22678;52.052;4.242;2023-09-07T02:00:59;101904.81;;;22.14;65.29
36692;BME280;22678;52.052;4.242;2023-09-07T02:03:27;101885.34;;;22.09;65.35
36692;BME280;22678;52.052;4.242;2023-09-07T02:05:53;101894.44;;;22.05;65.66
36692;BME280;22678;52.052;4.242;2023-09-07T02:08:19;101884.91;;;21.98;65.61
36692;BME280;22678;52.052;4.242;2023-09-07T02:10:44;101891.94;;;22.00;65.79
36692;BME280;22678;52.052;4.242;2023-09-07T02:13:10;101895.50;;;22.01;66.00
36692;BME280;22678;52.052;4.242;2023-09-07T02:15:40;101901.03;;;21.96;66.15
36692;BME280;22678;52.052;4.242;2023-09-07T02:18:06;101896.72;;;21.92;65.89
36692;BME280;22678;52.052;4.242;2023-09-07T02:20:34;101901.16;;;21.93;65.83
36692;BME280;22678;52.052;4.242;2023-09-07T02:23:00;101905.78;;;21.90;66.46
36692;BME280;22678;52.052;4.242;2023-09-07T02:25:26;101883.81;;;21.80;66.34
36692;BME280;22678;52.052;4.242;2023-09-07T02:27:52;101895.41;;;21.80;66.35
36692;BME280;22678;52.052;4.242;2023-09-07T02:30:18;101888.56;;;21.73;66.45
36692;BME280;22678;52.052;4.242;2023-09-07T02:32:43;101898.31;;;21.74;66.49
36692;BME280;22678;52.052;4.242;2023-09-07T02:35:09;101903.91;;;21.68;66.44
36692;BME280;22678;52.052;4.242;2023-09-07T02:37:35;101908.47;;;21.66;66.64
36692;BME280;22678;52.052;4.242;2023-09-07T02:40:01;101892.84;;;21.53;66.75
36692;BME280;22678;52.052;4.242;2023-09-07T02:42:26;101903.56;;;21.53;66.72
36692;BME280;22678;52.052;4.242;2023-09-07T02:44:51;101907.22;;;21.49;66.94
36692;BME280;22678;52.052;4.242;2023-09-07T02:47:17;101900.38;;;21.42;67.26
36692;BME280;22678;52.052;4.242;2023-09-07T02:49:42;101898.75;;;21.38;67.09
36692;BME280;22678;52.052;4.242;2023-09-07T02:52:08;101897.13;;;21.34;67.17
36692;BME280;22678;52.052;4.242;2023-09-07T02:54:33;101906.91;;;21.35;67.43
36692;BME280;22678;52.052;4.242;2023-09-07T02:56:58;101909.69;;;21.32;67.42
36692;BME280;22678;52.052;4.242;2023-09-07T02:59:24;101908.72;;;21.33;67.37
36692;BME280;22678;52.052;4.242;2023-09-07T03:01:49;101904.75;;;21.20;67.41
36692;BME280;22678;52.052;4.242;2023-09-07T03:04:14;101901.97;;;21.23;67.65
36692;BME280;22678;52.052;4.242;2023-09-07T03:06:39;101911.88;;;21.21;67.63
36692;BME280;22678;52.052;4.242;2023-09-07T03:09:05;101897.81;;;21.14;67.92
36692;BME280;22678;52.052;4.242;2023-09-07T03:11:34;101901.50;;;21.11;68.00
36692;BME280;22678;52.052;4.242;2023-09-07T03:14:00;101889.38;;;21.01;68.20
36692;BME280;22678;52.052;4.242;2023-09-07T03:16:25;101907.03;;;21.05;68.07
36692;BME280;22678;52.052;4.242;2023-09-07T03:18:50;101893.84;;;21.00;68.35
36692;BME280;22678;52.052;4.242;2023-09-07T03:21:16;101900.09;;;21.01;68.52
36692;BME280;22678;52.052;4.242;2023-09-07T03:23:41;101898.53;;;20.94;68.22
36692;BME280;22678;52.052;4.242;2023-09-07T03:26:09;101901.44;;;20.88;68.57
36692;BME280;22678;52.052;4.242;2023-09-07T03:28:34;101900.50;;;20.89;68.81
36692;BME280;22678;52.052;4.242;2023-09-07T03:31:00;101895.25;;;20.86;68.71
36692;BME280;22678;52.052;4.242;2023-09-07T03:33:25;101897.13;;;20.83;68.82
36692;BME280;22678;52.052;4.242;2023-09-07T03:35:50;101885.81;;;20.75;69.12
36692;BME280;22678;52.052;4.242;2023-09-07T03:38:17;101899.84;;;20.82;69.50
36692;BME280;22678;52.052;4.242;2023-09-07T03:40:42;101898.84;;;20.85;69.26
36692;BME280;22678;52.052;4.242;2023-09-07T03:43:08;101906.16;;;20.79;69.53
36692;BME280;22678;52.052;4.242;2023-09-07T03:45:34;101892.97;;;20.75;69.71
36692;BME280;22678;52.052;4.242;2023-09-07T03:47:59;101909.88;;;20.75;69.79
36692;BME280;22678;52.052;4.242;2023-09-07T03:50:24;101900.25;;;20.70;69.63
36692;BME280;22678;52.052;4.242;2023-09-07T03:52:50;101918.91;;;20.71;69.76
36692;BME280;22678;52.052;4.242;2023-09-07T03:55:15;101911.97;;;20.64;69.93
36692;BME280;22678;52.052;4.242;2023-09-07T03:57:40;101912.81;;;20.68;70.11
36692;BME280;22678;52.052;4.242;2023-09-07T04:00:07;101925.34;;;20.64;70.07
36692;BME280;22678;52.052;4.242;2023-09-07T04:02:34;101919.41;;;20.56;69.95
36692;BME280;22678;52.052;4.242;2023-09-07T04:04:59;101926.50;;;20.57;70.46
36692;BME280;22678;52.052;4.242;2023-09-07T04:07:26;101903.84;;;20.40;70.24
36692;BME280;22678;52.052;4.242;2023-09-07T04:09:52;101917.09;;;20.43;70.42
36692;BME280;22678;52.052;4.242;2023-09-07T04:12:17;101912.81;;;20.39;70.33
36692;BME280;22678;52.052;4.242;2023-09-07T04:14:43;101929.59;;;20.43;70.34
36692;BME280;22678;52.052;4.242;2023-09-07T04:17:09;101928.84;;;20.39;70.58
36692;BME280;22678;52.052;4.242;2023-09-07T04:19:35;101929.00;;;20.33;70.67
36692;BME280;22678;52.052;4.242;2023-09-07T04:22:00;101924.63;;;20.32;70.89
36692;BME280;22678;52.052;4.242;2023-09-07T04:24:26;101909.81;;;20.22;70.75
36692;BME280;22678;52.052;4.242;2023-09-07T04:26:58;101927.50;;;20.26;71.03
36692;BME280;22678;52.052;4.242;2023-09-07T04:29:24;101915.31;;;20.17;71.14
36692;BME280;22678;52.052;4.242;2023-09-07T04:31:50;101925.03;;;20.18;71.26
36692;BME280;22678;52.052;4.242;2023-09-07T04:34:15;101924.28;;;20.15;71.33
36692;BME280;22678;52.052;4.242;2023-09-07T04:36:40;101929.72;;;20.11;71.37
36692;BME280;22678;52.052;4.242;2023-09-07T04:39:06;101933.28;;;20.10;71.34
36692;BME280;22678;52.052;4.242;2023-09-07T04:41:31;101912.31;;;19.98;71.50
36692;BME280;22678;52.052;4.242;2023-09-07T04:43:56;101928.16;;;20.04;71.52
36692;BME280;22678;52.052;4.242;2023-09-07T04:46:22;101928.16;;;20.04;71.84
36692;BME280;22678;52.052;4.242;2023-09-07T04:48:48;101929.25;;;19.97;71.72
36692;BME280;22678;52.052;4.242;2023-09-07T04:51:13;101921.34;;;19.94;71.87
36692;BME280;22678;52.052;4.242;2023-09-07T04:53:39;101928.50;;;19.92;72.05
36692;BME280;22678;52.052;4.242;2023-09-07T04:56:05;101930.44;;;19.87;72.08
36692;BME280;22678;52.052;4.242;2023-09-07T04:58:31;101939.22;;;19.90;72.15
36692;BME280;22678;52.052;4.242;2023-09-07T05:01:08;101928.06;;;19.76;72.21
36692;BME280;22678;52.052;4.242;2023-09-07T05:03:34;101936.84;;;19.81;72.34
36692;BME280;22678;52.052;4.242;2023-09-07T05:06:00;101935.13;;;19.77;72.27
36692;BME280;22678;52.052;4.242;2023-09-07T05:08:25;101934.41;;;19.72;72.52
36692;BME280;22678;52.052;4.242;2023-09-07T05:10:55;101934.47;;;19.70;72.52
36692;BME280;22678;52.052;4.242;2023-09-07T05:13:21;101939.72;;;19.73;72.65
36692;BME280;22678;52.052;4.242;2023-09-07T05:15:51;101937.19;;;19.69;72.77
36692;BME280;22678;52.052;4.242;2023-09-07T05:18:17;101943.28;;;19.72;72.89
36692;BME280;22678;52.052;4.242;2023-09-07T05:20:43;101934.56;;;19.67;72.78
36692;BME280;22678;52.052;4.242;2023-09-07T05:23:14;101931.13;;;19.62;73.02
36692;BME280;22678;52.052;4.242;2023-09-07T05:25:49;101943.47;;;19.66;73.30
36692;BME280;22678;52.052;4.242;2023-09-07T05:28:16;101943.66;;;19.60;73.12
36692;BME280;22678;52.052;4.242;2023-09-07T05:30:42;101941.03;;;19.58;73.27
36692;BME280;22678;52.052;4.242;2023-09-07T05:33:12;101917.31;;;19.48;73.40
36692;BME280;22678;52.052;4.242;2023-09-07T05:35:38;101949.00;;;19.60;73.58
36692;BME280;22678;52.052;4.242;2023-09-07T05:38:06;101947.31;;;19.56;73.68
36692;BME280;22678;52.052;4.242;2023-09-07T05:40:36;101945.47;;;19.58;73.66
36692;BME280;22678;52.052;4.242;2023-09-07T05:43:02;101945.75;;;19.49;73.70
36692;BME280;22678;52.052;4.242;2023-09-07T05:45:34;101947.41;;;19.53;73.81
36692;BME280;22678;52.052;4.242;2023-09-07T05:47:59;101950.06;;;19.53;73.95
36692;BME280;22678;52.052;4.242;2023-09-07T05:50:25;101954.56;;;19.52;74.14
36692;BME280;22678;52.052;4.242;2023-09-07T05:52:50;101947.50;;;19.50;74.10
36692;BME280;22678;52.052;4.242;2023-09-07T05:55:15;101948.38;;;19.50;74.41
36692;BME280;22678;52.052;4.242;2023-09-07T05:57:41;101949.31;;;19.48;74.40
36692;BME280;22678;52.052;4.242;2023-09-07T06:00:07;101937.88;;;19.44;74.45
36692;BME280;22678;52.052;4.242;2023-09-07T06:02:32;101945.00;;;19.43;74.52
36692;BME280;22678;52.052;4.242;2023-09-07T06:04:58;101959.97;;;19.48;74.67
36692;BME280;22678;52.052;4.242;2023-09-07T06:10:53;101968.75;;;19.53;74.86
36692;BME280;22678;52.052;4.242;2023-09-07T06:13:18;101961.75;;;19.49;75.00
36692;BME280;22678;52.052;4.242;2023-09-07T06:15:44;101965.19;;;19.54;75.20
36692;BME280;22678;52.052;4.242;2023-09-07T06:18:09;101966.81;;;19.58;75.49
36692;BME280;22678;52.052;4.242;2023-09-07T06:20:34;101958.84;;;19.56;75.45
36692;BME280;22678;52.052;4.242;2023-09-07T06:23:00;101968.25;;;19.70;75.79
36692;BME280;22678;52.052;4.242;2023-09-07T06:25:26;101968.00;;;19.81;75.70
36692;BME280;22678;52.052;4.242;2023-09-07T06:27:52;101962.19;;;19.96;75.60
36692;BME280;22678;52.052;4.242;2023-09-07T06:30:18;101971.34;;;20.19;75.80
36692;BME280;22678;52.052;4.242;2023-09-07T06:32:43;101959.97;;;20.40;75.69
36692;BME280;22678;52.052;4.242;2023-09-07T06:35:08;101965.63;;;20.58;75.31
36692;BME280;22678;52.052;4.242;2023-09-07T06:37:35;101964.16;;;20.77;75.27
36692;BME280;22678;52.052;4.242;2023-09-07T06:40:02;101980.31;;;21.01;74.60
36692;BME280;22678;52.052;4.242;2023-09-07T06:42:29;101971.69;;;21.18;74.52
36692;BME280;22678;52.052;4.242;2023-09-07T06:44:56;101963.28;;;21.29;73.92
36692;BME280;22678;52.052;4.242;2023-09-07T06:47:21;101963.72;;;21.42;73.63
36692;BME280;22678;52.052;4.242;2023-09-07T06:49:46;101974.78;;;21.58;73.10
36692;BME280;22678;52.052;4.242;2023-09-07T06:52:12;101971.59;;;21.72;72.79
36692;BME280;22678;52.052;4.242;2023-09-07T06:54:37;101951.69;;;21.79;72.38
36692;BME280;22678;52.052;4.242;2023-09-07T06:57:06;101964.44;;;21.96;71.83
36692;BME280;22678;52.052;4.242;2023-09-07T06:59:32;101964.84;;;22.09;70.96
36692;BME280;22678;52.052;4.242;2023-09-07T07:01:58;101965.16;;;22.23;70.35
36692;BME280;22678;52.052;4.242;2023-09-07T07:04:25;101957.66;;;22.33;70.02
36692;BME280;22678;52.052;4.242;2023-09-07T07:06:50;101959.81;;;22.47;69.51
36692;BME280;22678;52.052;4.242;2023-09-07T07:09:15;101970.75;;;22.63;68.79
36692;BME280;22678;52.052;4.242;2023-09-07T07:11:41;101970.13;;;22.78;68.08
36692;BME280;22678;52.052;4.242;2023-09-07T07:14:08;101960.00;;;22.85;67.72
36692;BME280;22678;52.052;4.242;2023-09-07T07:16:34;101967.50;;;22.99;67.32
36692;BME280;22678;52.052;4.242;2023-09-07T07:18:59;101951.25;;;23.02;66.52
36692;BME280;22678;52.052;4.242;2023-09-07T07:21:24;101970.94;;;23.23;66.08
36692;BME280;22678;52.052;4.242;2023-09-07T07:23:50;101966.84;;;23.35;65.56
36692;BME280;22678;52.052;4.242;2023-09-07T07:26:15;101961.88;;;23.46;65.02
36692;BME280;22678;52.052;4.242;2023-09-07T07:28:41;101966.69;;;23.58;64.81
36692;BME280;22678;52.052;4.242;2023-09-07T07:31:07;101972.66;;;23.65;63.64
36692;BME280;22678;52.052;4.242;2023-09-07T07:33:34;101953.94;;;23.64;63.07
36692;BME280;22678;52.052;4.242;2023-09-07T07:35:59;101957.00;;;23.75;63.11
36692;BME280;22678;52.052;4.242;2023-09-07T07:38:24;101966.91;;;23.93;62.83
36692;BME280;22678;52.052;4.242;2023-09-07T07:40:49;101961.91;;;24.05;62.55
36692;BME280;22678;52.052;4.242;2023-09-07T07:43:17;101929.00;;;24.00;62.02
36692;BME280;22678;52.052;4.242;2023-09-07T07:45:42;101963.59;;;24.26;61.40
36692;BME280;22678;52.052;4.242;2023-09-07T07:48:07;101957.00;;;24.32;60.89
36692;BME280;22678;52.052;4.242;2023-09-07T07:50:37;101952.06;;;24.42;60.74
36692;BME280;22678;52.052;4.242;2023-09-07T07:53:04;101962.09;;;24.57;60.07
36692;BME280;22678;52.052;4.242;2023-09-07T07:55:29;101952.69;;;24.66;59.82
36692;BME280;22678;52.052;4.242;2023-09-07T07:57:55;101951.78;;;24.84;59.61
36692;BME280;22678;52.052;4.242;2023-09-07T08:00:20;101952.97;;;24.96;59.08
36692;BME280;22678;52.052;4.242;2023-09-07T08:02:45;101949.94;;;25.02;58.38
36692;BME280;22678;52.052;4.242;2023-09-07T08:05:11;101948.69;;;25.10;58.13
36692;BME280;22678;52.052;4.242;2023-09-07T08:07:36;101958.50;;;25.28;57.91
36692;BME280;22678;52.052;4.242;2023-09-07T08:10:01;101960.66;;;25.39;57.72
36692;BME280;22678;52.052;4.242;2023-09-07T08:12:28;101954.38;;;25.56;57.34
36692;BME280;22678;52.052;4.242;2023-09-07T08:14:53;101952.03;;;25.66;56.66
36692;BME280;22678;52.052;4.242;2023-09-07T08:17:19;101937.44;;;25.70;56.55
36692;BME280;22678;52.052;4.242;2023-09-07T08:19:45;101938.50;;;25.83;55.90
36692;BME280;22678;52.052;4.242;2023-09-07T08:22:13;101939.91;;;25.91;55.38
36692;BME280;22678;52.052;4.242;2023-09-07T08:24:39;101939.97;;;26.07;55.50
36692;BME280;22678;52.052;4.242;2023-09-07T08:27:05;101934.94;;;26.16;54.94
36692;BME280;22678;52.052;4.242;2023-09-07T08:29:30;101942.38;;;26.27;54.15
36692;BME280;22678;52.052;4.242;2023-09-07T08:31:57;101937.75;;;26.29;53.61
36692;BME280;22678;52.052;4.242;2023-09-07T08:34:24;101936.47;;;26.36;53.19
36692;BME280;22678;52.052;4.242;2023-09-07T08:36:49;101927.06;;;26.44;53.49
36692;BME280;22678;52.052;4.242;2023-09-07T08:39:15;101926.94;;;26.61;53.23
36692;BME280;22678;52.052;4.242;2023-09-07T08:41:42;101936.84;;;26.77;52.71
36692;BME280;22678;52.052;4.242;2023-09-07T08:44:18;101937.25;;;26.85;51.84
36692;BME280;22678;52.052;4.242;2023-09-07T08:46:49;101936.13;;;26.89;51.76
36692;BME280;22678;52.052;4.242;2023-09-07T08:49:15;101936.69;;;26.94;51.56
36692;BME280;22678;52.052;4.242;2023-09-07T08:51:45;101926.69;;;26.96;50.98
36692;BME280;22678;52.052;4.242;2023-09-07T08:54:11;101924.75;;;26.98;51.12
36692;BME280;22678;52.052;4.242;2023-09-07T08:56:37;101932.28;;;27.07;50.95
36692;BME280;22678;52.052;4.242;2023-09-07T08:59:02;101936.00;;;27.21;51.07
36692;BME280;22678;52.052;4.242;2023-09-07T09:01:29;101936.28;;;27.31;50.57
36692;BME280;22678;52.052;4.242;2023-09-07T09:03:57;101927.84;;;27.37;49.96
36692;BME280;22678;52.052;4.242;2023-09-07T09:06:23;101922.94;;;27.43;49.71
36692;BME280;22678;52.052;4.242;2023-09-07T09:08:55;101917.03;;;27.51;49.60
36692;BME280;22678;52.052;4.242;2023-09-07T09:11:25;101923.50;;;27.63;49.27
36692;BME280;22678;52.052;4.242;2023-09-07T09:13:52;101928.13;;;27.75;48.82
36692;BME280;22678;52.052;4.242;2023-09-07T09:16:18;101926.69;;;27.84;48.37
36692;BME280;22678;52.052;4.242;2023-09-07T09:18:51;101928.69;;;27.95;48.65
36692;BME280;22678;52.052;4.242;2023-09-07T09:21:22;101915.53;;;28.03;48.36
36692;BME280;22678;52.052;4.242;2023-09-07T09:23:49;101928.81;;;28.21;47.68
36692;BME280;22678;52.052;4.242;2023-09-07T09:26:15;101917.41;;;28.30;47.96
36692;BME280;22678;52.052;4.242;2023-09-07T09:28:42;101917.75;;;28.38;47.24
36692;BME280;22678;52.052;4.242;2023-09-07T09:31:08;101927.56;;;28.54;47.75
36692;BME280;22678;52.052;4.242;2023-09-07T09:33:37;101925.13;;;28.63;47.16
36692;BME280;22678;52.052;4.242;2023-09-07T09:36:03;101929.94;;;28.73;46.90
36692;BME280;22678;52.052;4.242;2023-09-07T09:38:29;101924.94;;;28.79;46.24
36692;BME280;22678;52.052;4.242;2023-09-07T09:40:57;101929.28;;;28.82;45.67
36692;BME280;22678;52.052;4.242;2023-09-07T09:43:24;101919.09;;;28.86;45.53
36692;BME280;22678;52.052;4.242;2023-09-07T09:45:50;101916.97;;;28.91;45.26
36692;BME280;22678;52.052;4.242;2023-09-07T09:48:18;101923.03;;;29.07;44.87
36692;BME280;22678;52.052;4.242;2023-09-07T09:50:46;101914.16;;;29.05;44.47
36692;BME280;22678;52.052;4.242;2023-09-07T09:53:14;101913.94;;;29.08;43.96
36692;BME280;22678;52.052;4.242;2023-09-07T09:55:46;101904.66;;;29.12;44.06
36692;BME280;22678;52.052;4.242;2023-09-07T09:58:16;101913.78;;;29.24;43.95
36692;BME280;22678;52.052;4.242;2023-09-07T10:00:46;101903.47;;;29.29;43.73
36692;BME280;22678;52.052;4.242;2023-09-07T10:03:32;101905.41;;;29.40;43.95
36692;BME280;22678;52.052;4.242;2023-09-07T10:06:28;101903.00;;;29.48;43.96
36692;BME280;22678;52.052;4.242;2023-09-07T10:09:03;101902.13;;;29.61;43.18
36692;BME280;22678;52.052;4.242;2023-09-07T10:11:37;101900.91;;;29.65;43.56
36692;BME280;22678;52.052;4.242;2023-09-07T10:14:03;101910.47;;;29.83;43.37
36692;BME280;22678;52.052;4.242;2023-09-07T10:16:41;101908.81;;;29.94;43.18
36692;BME280;22678;52.052;4.242;2023-09-07T10:21:41;101904.81;;;29.86;42.19
36692;BME280;22678;52.052;4.242;2023-09-07T10:24:06;101911.09;;;29.87;42.22
36692;BME280;22678;52.052;4.242;2023-09-07T10:26:31;101922.59;;;29.91;42.18
36692;BME280;22678;52.052;4.242;2023-09-07T10:29:01;101909.78;;;29.93;42.10
36692;BME280;22678;52.052;4.242;2023-09-07T10:31:29;101912.03;;;29.99;41.92
36692;BME280;22678;52.052;4.242;2023-09-07T10:34:07;101903.47;;;30.05;42.05
36692;BME280;22678;52.052;4.242;2023-09-07T10:36:34;101896.38;;;30.15;42.02
36692;BME280;22678;52.052;4.242;2023-09-07T10:39:02;101898.16;;;30.28;41.56
36692;BME280;22678;52.052;4.242;2023-09-07T10:41:39;101894.72;;;30.37;41.56
36692;BME280;22678;52.052;4.242;2023-09-07T10:44:06;101894.19;;;30.45;42.09
36692;BME280;22678;52.052;4.242;2023-09-07T10:46:31;101893.59;;;30.52;41.85
36692;BME280;22678;52.052;4.242;2023-09-07T10:48:57;101887.47;;;30.62;41.36
36692;BME280;22678;52.052;4.242;2023-09-07T10:51:22;101898.38;;;30.73;40.89
36692;BME280;22678;52.052;4.242;2023-09-07T10:53:48;101897.72;;;30.69;40.19
36692;BME280;22678;52.052;4.242;2023-09-07T10:56:14;101909.47;;;30.70;40.17
36692;BME280;22678;52.052;4.242;2023-09-07T10:58:40;101895.66;;;30.73;40.48
36692;BME280;22678;52.052;4.242;2023-09-07T11:01:07;101889.63;;;30.81;40.51
36692;BME280;22678;52.052;4.242;2023-09-07T11:03:33;101896.66;;;30.95;40.34
36692;BME280;22678;52.052;4.242;2023-09-07T11:06:12;101888.19;;;30.99;40.62
36692;BME280;22678;52.052;4.242;2023-09-07T11:08:39;101873.50;;;31.02;40.40
36692;BME280;22678;52.052;4.242;2023-09-07T11:11:04;101868.72;;;31.05;40.56
36692;BME280;22678;52.052;4.242;2023-09-07T11:13:30;101865.84;;;31.18;40.34
36692;BME280;22678;52.052;4.242;2023-09-07T11:15:57;101858.34;;;31.33;40.03
36692;BME280;22678;52.052;4.242;2023-09-07T11:18:24;101872.31;;;31.51;39.65
36692;BME280;22678;52.052;4.242;2023-09-07T11:20:50;101863.78;;;31.56;38.86
36692;BME280;22678;52.052;4.242;2023-09-07T11:23:17;101838.22;;;31.58;38.86
36692;BME280;22678;52.052;4.242;2023-09-07T11:25:43;101854.50;;;31.70;38.29
36692;BME280;22678;52.052;4.242;2023-09-07T11:28:08;101852.53;;;31.72;37.95
36692;BME280;22678;52.052;4.242;2023-09-07T11:30:34;101856.84;;;31.74;38.34
36692;BME280;22678;52.052;4.242;2023-09-07T11:33:07;101856.69;;;31.87;38.11
36692;BME280;22678;52.052;4.242;2023-09-07T11:35:35;101845.81;;;31.87;37.09
36692;BME280;22678;52.052;4.242;2023-09-07T11:38:03;101860.63;;;31.94;37.28
36692;BME280;22678;52.052;4.242;2023-09-07T11:40:30;101851.88;;;31.91;36.96
36692;BME280;22678;52.052;4.242;2023-09-07T11:42:56;101847.28;;;31.91;37.57
36692;BME280;22678;52.052;4.242;2023-09-07T11:45:21;101846.00;;;32.07;37.73
36692;BME280;22678;52.052;4.242;2023-09-07T11:47:47;101852.44;;;32.17;37.13
36692;BME280;22678;52.052;4.242;2023-09-07T11:50:12;101842.72;;;32.24;36.55
36692;BME280;22678;52.052;4.242;2023-09-07T11:52:38;101840.28;;;32.21;36.31
36692;BME280;22678;52.052;4.242;2023-09-07T11:55:03;101833.84;;;32.22;36.01
36692;BME280;22678;52.052;4.242;2023-09-07T11:57:29;101834.09;;;32.19;35.62
36692;BME280;22678;52.052;4.242;2023-09-07T11:59:55;101833.59;;;32.25;35.66
36692;BME280;22678;52.052;4.242;2023-09-07T12:02:21;101835.59;;;32.23;35.46
36692;BME280;22678;52.052;4.242;2023-09-07T12:04:47;101826.41;;;32.24;35.49
36692;BME280;22678;52.052;4.242;2023-09-07T12:07:13;101812.44;;;32.29;35.74
36692;BME280;22678;52.052;4.242;2023-09-07T12:09:38;101824.13;;;32.41;36.11
36692;BME280;22678;52.052;4.242;2023-09-07T12:12:04;101817.16;;;32.48;35.61
36692;BME280;22678;52.052;4.242;2023-09-07T12:14:29;101807.66;;;32.42;35.97
36692;BME280;22678;52.052;4.242;2023-09-07T12:16:56;101807.97;;;32.49;35.73
36692;BME280;22678;52.052;4.242;2023-09-07T12:19:21;101804.97;;;32.52;35.69
36692;BME280;22678;52.052;4.242;2023-09-07T12:21:47;101802.88;;;32.56;35.53
36692;BME280;22678;52.052;4.242;2023-09-07T12:24:12;101805.41;;;32.69;35.65
36692;BME280;22678;52.052;4.242;2023-09-07T12:26:37;101816.47;;;32.77;35.73
36692;BME280;22678;52.052;4.242;2023-09-07T12:29:04;101807.19;;;32.79;35.50
36692;BME280;22678;52.052;4.242;2023-09-07T12:31:29;101799.28;;;32.76;35.11
36692;BME280;22678;52.052;4.242;2023-09-07T12:33:56;101787.38;;;32.77;35.24
36692;BME280;22678;52.052;4.242;2023-09-07T12:36:22;101793.16;;;32.84;35.01
36692;BME280;22678;52.052;4.242;2023-09-07T12:38:47;101784.84;;;32.86;35.05
36692;BME280;22678;52.052;4.242;2023-09-07T12:41:12;101789.59;;;32.93;35.19
36692;BME280;22678;52.052;4.242;2023-09-07T12:43:38;101783.03;;;32.96;35.02
36692;BME280;22678;52.052;4.242;2023-09-07T12:46:03;101783.22;;;33.04;35.15
36692;BME280;22678;52.052;4.242;2023-09-07T12:48:29;101787.97;;;33.12;34.87
36692;BME280;22678;52.052;4.242;2023-09-07T12:50:54;101781.72;;;33.21;34.77
36692;BME280;22678;52.052;4.242;2023-09-07T12:53:20;101784.91;;;33.26;34.44